createdAt,value
2023-05-15T00:00:06.503Z,56.15
2023-05-15T00:02:35.817Z,56.24
2023-05-15T00:05:04.475Z,56.09
2023-05-15T00:07:32.627Z,56.16
2023-05-15T00:10:00.525Z,56.16
2023-05-15T00:12:28.892Z,56.13
2023-05-15T00:14:56.720Z,56.13
2023-05-15T00:17:24.577Z,56.10
2023-05-15T00:19:57.675Z,56.07
2023-05-15T00:22:26.141Z,56.10
2023-05-15T00:24:54.440Z,56.16
2023-05-15T00:27:22.223Z,56.00
2023-05-15T00:29:49.996Z,56.13
2023-05-15T00:32:17.829Z,56.14
2023-05-15T00:34:45.764Z,55.96
2023-05-15T00:37:15.086Z,56.11
2023-05-15T00:39:43.058Z,56.09
2023-05-15T00:42:11.408Z,55.93
2023-05-15T00:44:41.356Z,56.03
2023-05-15T00:47:11.824Z,55.89
2023-05-15T00:49:40.980Z,55.94
2023-05-15T00:52:08.881Z,56.02
2023-05-15T00:54:38.086Z,56.03
2023-05-15T00:57:07.252Z,56.11
2023-05-15T00:59:36.154Z,56.01
2023-05-15T01:02:04.197Z,56.08
2023-05-15T01:04:32.529Z,55.96
2023-05-15T01:07:00.346Z,55.97
2023-05-15T01:09:31.262Z,55.84
2023-05-15T01:12:03.436Z,56.06
2023-05-15T01:14:31.158Z,55.55
2023-05-15T01:16:59.095Z,55.92
2023-05-15T01:19:27.331Z,55.84
2023-05-15T01:22:17.476Z,55.92
2023-05-15T01:25:12.279Z,55.84
2023-05-15T01:27:46.372Z,55.73
2023-05-15T01:30:20.405Z,55.74
2023-05-15T01:32:53.445Z,55.91
2023-05-15T01:35:25.079Z,55.80
2023-05-15T01:38:01.715Z,55.83
2023-05-15T01:40:30.775Z,55.99
2023-05-15T01:43:07.078Z,55.88
2023-05-15T01:45:36.697Z,55.96
2023-05-15T01:48:09.722Z,55.91
2023-05-15T01:50:40.719Z,55.75
2023-05-15T01:53:10.637Z,55.87
2023-05-15T01:55:39.986Z,55.76
2023-05-15T01:58:10.431Z,56.01
2023-05-15T02:00:40.253Z,56.07
2023-05-15T02:03:08.245Z,55.87
2023-05-15T02:05:36.231Z,56.11
2023-05-15T02:08:05.514Z,55.88
2023-05-15T02:10:34.346Z,55.88
2023-05-15T02:13:03.020Z,55.75
2023-05-15T02:15:32.377Z,55.99
2023-05-15T02:18:00.282Z,55.71
2023-05-15T02:20:28.248Z,56.05
2023-05-15T02:22:56.048Z,55.54
2023-05-15T02:25:35.824Z,55.93
2023-05-15T02:28:07.925Z,55.84
2023-05-15T02:30:42.404Z,56.00
2023-05-15T02:33:20.895Z,55.90
2023-05-15T02:35:52.456Z,55.97
2023-05-15T02:38:26.740Z,56.05
2023-05-15T02:40:58.180Z,56.02
2023-05-15T02:43:27.408Z,56.08
2023-05-15T02:45:58.226Z,56.11
2023-05-15T02:48:27.007Z,56.12
2023-05-15T02:50:55.349Z,56.09
2023-05-15T02:53:23.204Z,55.99
2023-05-15T02:55:51.764Z,56.07
2023-05-15T02:58:19.704Z,56.02
2023-05-15T03:00:47.613Z,56.00
2023-05-15T03:03:16.836Z,56.22
2023-05-15T03:05:44.788Z,56.14
2023-05-15T03:08:12.594Z,56.06
2023-05-15T03:10:40.351Z,56.25
2023-05-15T03:13:08.111Z,56.02
2023-05-15T03:15:35.907Z,56.10
2023-05-15T03:18:03.756Z,56.21
2023-05-15T03:20:33.117Z,55.99
2023-05-15T03:23:00.878Z,56.04
2023-05-15T03:25:28.719Z,56.05
2023-05-15T03:27:56.530Z,56.11
2023-05-15T03:30:24.292Z,56.12
2023-05-15T03:32:52.140Z,56.17
2023-05-15T03:35:19.966Z,56.01
2023-05-15T03:37:49.129Z,55.96
2023-05-15T03:40:16.984Z,55.89
2023-05-15T03:42:44.816Z,56.17
2023-05-15T03:45:12.632Z,56.00
2023-05-15T03:47:40.482Z,55.99
2023-05-15T03:50:08.834Z,56.14
2023-05-15T03:52:36.651Z,55.96
2023-05-15T03:55:06.792Z,56.12
2023-05-15T03:57:35.597Z,56.08
2023-05-15T04:00:09.753Z,56.09
2023-05-15T04:02:37.759Z,56.14
2023-05-15T04:05:06.906Z,55.98
2023-05-15T04:07:35.846Z,56.05
2023-05-15T04:10:05.663Z,56.13
2023-05-15T04:12:35.440Z,56.21
2023-05-15T04:15:16.009Z,56.22
2023-05-15T04:17:44.352Z,56.16
2023-05-15T04:20:14.197Z,56.11
2023-05-15T04:22:42.530Z,55.88
2023-05-15T04:25:14.801Z,56.32
2023-05-15T04:27:43.736Z,56.03
2023-05-15T04:30:12.841Z,56.03
2023-05-15T04:32:41.337Z,56.14
2023-05-15T04:35:12.281Z,55.86
2023-05-15T04:37:41.071Z,56.19
2023-05-15T04:40:12.219Z,56.21
2023-05-15T04:42:40.001Z,56.26
2023-05-15T04:45:09.222Z,56.42
2023-05-15T04:47:37.464Z,56.35
2023-05-15T04:50:06.548Z,56.32
2023-05-15T04:52:34.543Z,56.24
2023-05-15T04:55:02.809Z,56.52
2023-05-15T04:57:32.058Z,56.45
2023-05-15T05:00:02.553Z,56.65
2023-05-15T05:02:30.607Z,56.49
2023-05-15T05:04:58.435Z,56.29
2023-05-15T05:07:26.337Z,56.48
2023-05-15T05:09:54.144Z,56.64
2023-05-15T05:12:21.909Z,56.87
2023-05-15T05:14:51.103Z,56.68
2023-05-15T05:17:20.957Z,56.97
2023-05-15T05:19:48.700Z,56.92
2023-05-15T05:22:16.574Z,56.89
2023-05-15T05:24:44.394Z,56.92
2023-05-15T05:27:12.231Z,57.21
2023-05-15T05:29:41.338Z,57.27
2023-05-15T05:32:10.639Z,57.71
2023-05-15T05:34:38.508Z,57.57
2023-05-15T05:37:06.497Z,57.93
2023-05-15T05:39:34.362Z,57.87
2023-05-15T05:42:02.179Z,58.60
2023-05-15T05:44:30.154Z,58.31
2023-05-15T05:46:58.214Z,58.94
2023-05-15T05:49:27.830Z,58.44
2023-05-15T05:51:55.756Z,58.85
2023-05-15T05:54:23.790Z,58.61
2023-05-15T05:56:51.713Z,59.23
2023-05-15T05:59:19.523Z,59.02
2023-05-15T06:01:49.200Z,58.78
2023-05-15T06:04:18.355Z,59.09
2023-05-15T06:06:47.714Z,59.10
2023-05-15T06:09:15.581Z,58.85
2023-05-15T06:11:43.427Z,58.66
2023-05-15T06:14:11.256Z,58.79
2023-05-15T06:16:39.162Z,58.66
2023-05-15T06:19:07.168Z,58.91
2023-05-15T06:21:35.288Z,58.80
2023-05-15T06:24:04.682Z,58.39
2023-05-15T06:26:32.545Z,58.80
2023-05-15T06:29:00.342Z,58.54
2023-05-15T06:31:28.244Z,58.52
2023-05-15T06:33:56.241Z,58.51
2023-05-15T06:36:24.141Z,58.44
2023-05-15T06:38:51.938Z,58.09
2023-05-15T06:41:21.703Z,58.02
2023-05-15T06:43:49.521Z,58.52
2023-05-15T06:46:19.328Z,58.21
2023-05-15T06:48:48.347Z,58.14
2023-05-15T06:51:16.166Z,58.11
2023-05-15T06:53:44.168Z,58.05
2023-05-15T06:56:11.991Z,58.12
2023-05-15T06:58:41.194Z,58.23
2023-05-15T07:01:10.355Z,58.09
2023-05-15T07:03:38.526Z,57.95
2023-05-15T07:06:06.611Z,58.14
2023-05-15T07:08:34.350Z,58.27
2023-05-15T07:11:02.164Z,58.07
2023-05-15T07:13:29.936Z,58.17
2023-05-15T07:15:59.220Z,58.00
2023-05-15T07:18:27.321Z,57.82
2023-05-15T07:20:55.343Z,58.21
2023-05-15T07:23:23.119Z,58.15
2023-05-15T07:25:50.927Z,58.02
2023-05-15T07:28:18.667Z,57.89
2023-05-15T07:30:46.518Z,57.94
2023-05-15T07:33:15.734Z,57.68
2023-05-15T07:35:43.676Z,58.05
2023-05-15T07:38:12.147Z,57.53
2023-05-15T07:40:40.122Z,57.93
2023-05-15T07:43:07.919Z,57.91
2023-05-15T07:45:36.420Z,57.53
2023-05-15T07:48:16.604Z,57.51
2023-05-15T07:50:46.479Z,57.77
2023-05-15T07:53:14.741Z,57.49
2023-05-15T07:55:42.645Z,57.77
2023-05-15T07:58:10.562Z,57.68
2023-05-15T08:00:38.357Z,57.67
2023-05-15T08:03:06.352Z,57.47
2023-05-15T08:05:35.628Z,57.58
2023-05-15T08:08:03.446Z,57.82
2023-05-15T08:10:31.215Z,57.86
2023-05-15T08:12:59.009Z,57.74
2023-05-15T08:15:26.956Z,57.95
2023-05-15T08:17:54.959Z,57.84
2023-05-15T08:20:22.979Z,57.83
2023-05-15T08:22:52.190Z,57.79
2023-05-15T08:25:20.003Z,57.80
2023-05-15T08:27:47.767Z,57.81
2023-05-15T08:30:16.535Z,57.71
2023-05-15T08:32:45.752Z,58.00
2023-05-15T08:35:13.683Z,58.21
2023-05-15T08:37:41.474Z,58.05
2023-05-15T08:40:11.596Z,58.20
2023-05-15T08:42:45.307Z,58.30
2023-05-15T08:45:14.825Z,58.13
2023-05-15T08:47:44.079Z,58.03
2023-05-15T08:50:15.429Z,58.33
2023-05-15T08:52:44.105Z,58.38
2023-05-15T08:55:14.411Z,58.61
2023-05-15T08:57:42.758Z,58.41
2023-05-15T09:00:14.461Z,58.12
2023-05-15T09:02:43.451Z,57.96
2023-05-15T09:05:11.476Z,57.83
2023-05-15T09:07:41.037Z,57.76
2023-05-15T09:10:11.334Z,57.54
2023-05-15T09:12:44.101Z,57.49
2023-05-15T09:15:14.551Z,57.67
2023-05-15T09:17:43.282Z,58.02
2023-05-15T09:20:27.094Z,58.23
2023-05-15T09:22:56.837Z,58.12
2023-05-15T09:25:41.011Z,58.13
2023-05-15T09:28:11.457Z,58.27
2023-05-15T09:30:39.840Z,58.08
2023-05-15T09:33:08.242Z,58.10
2023-05-15T09:35:37.596Z,58.01
2023-05-15T09:38:10.313Z,58.17
2023-05-15T09:40:39.340Z,57.93
2023-05-15T09:43:07.115Z,57.58
2023-05-15T09:45:37.855Z,57.43
2023-05-15T09:48:07.287Z,57.45
2023-05-15T09:50:37.088Z,57.33
2023-05-15T09:53:05.511Z,57.07
2023-05-15T09:55:34.216Z,57.02
2023-05-15T09:58:11.201Z,56.95
2023-05-15T10:00:47.632Z,56.71
2023-05-15T10:03:19.051Z,56.85
2023-05-15T10:05:47.054Z,57.08
2023-05-15T10:08:16.165Z,56.95
2023-05-15T10:10:44.596Z,56.94
2023-05-15T10:13:13.028Z,56.86
2023-05-15T10:15:43.188Z,57.00
2023-05-15T10:18:12.473Z,57.08
2023-05-15T10:20:40.687Z,57.30
2023-05-15T10:23:12.025Z,57.25
2023-05-15T10:25:46.786Z,57.44
2023-05-15T10:28:16.772Z,57.34
2023-05-15T10:30:47.373Z,57.44
2023-05-15T10:33:16.497Z,57.53
2023-05-15T10:35:45.372Z,57.52
2023-05-15T10:38:14.462Z,57.59
2023-05-15T10:40:42.820Z,57.56
2023-05-15T10:43:11.615Z,57.94
2023-05-15T10:45:40.447Z,57.79
2023-05-15T10:48:12.542Z,57.88
2023-05-15T10:50:40.623Z,57.91
2023-05-15T10:53:10.705Z,57.87
2023-05-15T10:55:38.756Z,57.93
2023-05-15T10:58:10.580Z,57.87
2023-05-15T11:00:43.700Z,57.59
2023-05-15T11:03:16.826Z,57.80
2023-05-15T11:06:10.860Z,57.79
2023-05-15T11:08:39.562Z,57.80
2023-05-15T11:11:57.497Z,57.45
2023-05-15T11:14:27.629Z,57.51
2023-05-15T11:17:03.998Z,57.65
2023-05-15T11:19:38.651Z,57.76
2023-05-15T11:22:20.543Z,57.67
2023-05-15T11:24:51.360Z,57.71
2023-05-15T11:27:20.515Z,57.79
2023-05-15T11:30:12.054Z,57.81
2023-05-15T11:32:45.002Z,58.10
2023-05-15T11:35:15.504Z,58.03
2023-05-15T11:37:44.640Z,58.06
2023-05-15T11:40:15.597Z,58.15
2023-05-15T11:42:59.412Z,58.21
2023-05-15T11:45:27.978Z,58.31
2023-05-15T11:47:55.799Z,58.48
2023-05-15T11:50:25.498Z,58.42
2023-05-15T11:52:54.026Z,58.47
2023-05-15T11:55:23.218Z,58.43
2023-05-15T11:57:51.011Z,58.45
2023-05-15T12:00:19.137Z,58.53
2023-05-15T12:02:47.239Z,58.62
2023-05-15T12:05:15.169Z,58.80
2023-05-15T12:07:45.442Z,58.85
2023-05-15T12:10:14.387Z,58.87
2023-05-15T12:12:42.778Z,59.15
2023-05-15T12:15:11.847Z,59.37
2023-05-15T12:17:40.246Z,59.42
2023-05-15T12:20:10.724Z,59.61
2023-05-15T12:22:39.360Z,59.61
2023-05-15T12:25:11.275Z,59.63
2023-05-15T12:27:40.946Z,59.84
2023-05-15T12:30:10.961Z,60.45
2023-05-15T12:32:39.882Z,60.79
2023-05-15T12:35:08.140Z,60.70
2023-05-15T12:37:37.215Z,60.82
2023-05-15T12:40:10.203Z,60.92
2023-05-15T12:42:43.877Z,60.94
2023-05-15T12:45:16.346Z,61.00
2023-05-15T12:47:44.965Z,61.04
2023-05-15T12:50:15.945Z,60.93
2023-05-15T12:52:48.541Z,60.82
2023-05-15T12:55:23.247Z,60.69
2023-05-15T12:57:52.606Z,60.48
2023-05-15T13:00:22.705Z,60.51
2023-05-15T13:02:51.930Z,60.70
2023-05-15T13:05:20.327Z,60.60
2023-05-15T13:07:48.989Z,60.62
2023-05-15T13:10:16.900Z,60.58
2023-05-15T13:12:46.401Z,60.54
2023-05-15T13:15:27.748Z,60.52
2023-05-15T13:17:59.420Z,60.58
2023-05-15T13:20:29.267Z,60.82
2023-05-15T13:22:57.153Z,60.61
2023-05-15T13:25:25.257Z,60.75
2023-05-15T13:27:53.164Z,60.90
2023-05-15T13:30:21.262Z,60.91
2023-05-15T13:32:50.739Z,60.96
2023-05-15T13:35:19.192Z,60.96
2023-05-15T13:37:46.962Z,61.06
2023-05-15T13:40:15.202Z,60.86
2023-05-15T13:42:44.779Z,60.61
2023-05-15T13:45:13.979Z,60.75
2023-05-15T13:47:42.146Z,60.81
2023-05-15T13:50:13.336Z,60.73
2023-05-15T13:52:42.435Z,60.81
2023-05-15T13:55:11.120Z,60.97
2023-05-15T13:57:39.428Z,60.82
2023-05-15T14:00:10.620Z,61.02
2023-05-15T14:02:38.479Z,60.92
2023-05-15T14:05:07.573Z,61.15
2023-05-15T14:07:36.780Z,61.59
2023-05-15T14:10:05.198Z,61.90
2023-05-15T14:12:33.807Z,61.93
2023-05-15T14:15:02.197Z,61.90
2023-05-15T14:17:30.134Z,62.10
2023-05-15T14:19:58.123Z,62.60
2023-05-15T14:22:25.927Z,62.53
2023-05-15T14:24:55.270Z,62.56
2023-05-15T14:27:23.009Z,62.49
2023-05-15T14:29:51.213Z,62.52
2023-05-15T14:32:19.138Z,62.65
2023-05-15T14:34:47.062Z,62.42
2023-05-15T14:37:15.016Z,62.65
2023-05-15T14:39:42.912Z,62.53
2023-05-15T14:42:12.307Z,62.23
2023-05-15T14:44:40.113Z,62.09
2023-05-15T14:47:09.324Z,62.21
2023-05-15T14:49:38.032Z,62.25
2023-05-15T14:52:07.889Z,61.96
2023-05-15T14:54:36.510Z,61.96
2023-05-15T14:57:04.875Z,61.83
2023-05-15T14:59:34.099Z,61.70
2023-05-15T15:02:02.171Z,61.53
2023-05-15T15:04:34.411Z,61.62
2023-05-15T15:07:05.034Z,61.48
2023-05-15T15:09:32.881Z,61.52
2023-05-15T15:12:00.934Z,61.33
2023-05-15T15:14:28.912Z,61.25
2023-05-15T15:16:58.130Z,61.08
2023-05-15T15:19:26.076Z,60.35
2023-05-15T15:21:53.972Z,60.72
2023-05-15T15:24:21.830Z,60.19
2023-05-15T15:26:49.676Z,60.16
2023-05-15T15:29:17.592Z,60.39
2023-05-15T15:31:45.426Z,60.21
2023-05-15T15:34:14.607Z,59.91
2023-05-15T15:36:43.574Z,59.74
2023-05-15T15:39:13.120Z,59.83
2023-05-15T15:41:40.992Z,59.90
2023-05-15T15:44:08.812Z,60.02
2023-05-15T15:46:36.645Z,60.00
2023-05-15T15:49:05.999Z,59.50
2023-05-15T15:51:36.281Z,59.48
2023-05-15T15:54:04.155Z,59.79
2023-05-15T15:56:31.976Z,59.93
2023-05-15T15:58:59.764Z,59.95
2023-05-15T16:01:27.764Z,59.67
2023-05-15T16:03:55.680Z,59.70
2023-05-15T16:06:23.499Z,59.62
2023-05-15T16:08:53.067Z,59.57
2023-05-15T16:11:21.501Z,59.64
2023-05-15T16:13:49.599Z,59.34
2023-05-15T16:16:17.648Z,59.35
2023-05-15T16:18:45.874Z,59.35
2023-05-15T16:21:14.117Z,59.30
2023-05-15T16:23:42.300Z,59.50
2023-05-15T16:26:11.995Z,59.58
2023-05-15T16:28:40.008Z,59.28
2023-05-15T16:31:08.034Z,59.06
2023-05-15T16:33:35.937Z,58.85
2023-05-15T16:36:05.177Z,58.77
2023-05-15T16:38:33.128Z,58.96
2023-05-15T16:41:01.474Z,59.07
2023-05-15T16:43:30.616Z,58.96
2023-05-15T16:45:58.970Z,59.08
2023-05-15T16:48:27.990Z,58.84
2023-05-15T16:50:55.784Z,59.01
2023-05-15T16:53:24.228Z,58.88
2023-05-15T16:55:52.028Z,59.00
2023-05-15T16:58:20.167Z,58.88
2023-05-15T17:00:49.473Z,58.84
2023-05-15T17:03:18.905Z,58.85
2023-05-15T17:05:47.418Z,58.94
2023-05-15T17:08:15.313Z,58.92
2023-05-15T17:10:43.257Z,59.06
2023-05-15T17:13:11.053Z,58.95
2023-05-15T17:15:38.861Z,59.02
2023-05-15T17:18:08.389Z,59.02
2023-05-15T17:20:36.243Z,59.03
2023-05-15T17:23:04.408Z,59.01
2023-05-15T17:25:32.311Z,58.79
2023-05-15T17:28:00.255Z,58.32
2023-05-15T17:30:28.367Z,58.01
2023-05-15T17:32:56.818Z,58.11
2023-05-15T17:35:26.372Z,57.60
2023-05-15T17:37:54.435Z,57.70
2023-05-15T17:40:22.298Z,57.60
2023-05-15T17:42:50.038Z,57.32
2023-05-15T17:45:18.065Z,57.19
2023-05-15T17:47:45.953Z,57.52
2023-05-15T17:50:13.779Z,57.42
2023-05-15T17:52:42.934Z,57.46
2023-05-15T17:55:10.965Z,57.62
2023-05-15T17:57:38.745Z,57.97
2023-05-15T18:00:08.364Z,58.24
2023-05-15T18:02:36.234Z,58.22
2023-05-15T18:05:04.364Z,58.41
2023-05-15T18:07:32.295Z,58.81
2023-05-15T18:10:01.729Z,58.91
2023-05-15T18:12:29.579Z,58.71
2023-05-15T18:14:57.493Z,58.92
2023-05-15T18:17:25.416Z,59.06
2023-05-15T18:19:53.450Z,58.97
2023-05-15T18:22:21.430Z,59.25
2023-05-15T18:24:49.234Z,59.08
2023-05-15T18:27:18.417Z,59.28
2023-05-15T18:29:46.196Z,59.42
2023-05-15T18:32:14.066Z,58.96
2023-05-15T18:34:41.816Z,59.37
2023-05-15T18:37:09.597Z,59.00
2023-05-15T18:39:38.508Z,59.48
2023-05-15T18:42:06.883Z,59.52
2023-05-15T18:44:36.049Z,59.65
2023-05-15T18:47:04.438Z,59.65
2023-05-15T18:49:32.384Z,60.07
2023-05-15T18:52:00.436Z,60.01
2023-05-15T18:54:28.389Z,59.86
2023-05-15T18:56:56.453Z,60.13
2023-05-15T18:59:24.641Z,60.26
2023-05-15T19:01:54.303Z,60.45
2023-05-15T19:04:22.611Z,60.34
2023-05-15T19:06:50.440Z,60.17
2023-05-15T19:09:19.092Z,60.14
2023-05-15T19:11:47.399Z,60.16
2023-05-15T19:14:17.039Z,59.98
2023-05-15T19:16:45.237Z,59.82
2023-05-15T19:19:14.621Z,59.83
2023-05-15T19:21:42.506Z,59.72
2023-05-15T19:24:10.428Z,59.89
2023-05-15T19:26:38.311Z,59.57
2023-05-15T19:29:06.460Z,59.48
2023-05-15T19:31:34.448Z,59.84
2023-05-15T19:34:02.297Z,59.83
2023-05-15T19:36:31.670Z,59.64
2023-05-15T19:38:59.531Z,59.79
2023-05-15T19:41:27.466Z,59.82
2023-05-15T19:43:55.340Z,59.67
2023-05-15T19:46:23.363Z,59.55
2023-05-15T19:48:51.280Z,59.37
2023-05-15T19:51:19.070Z,59.24
2023-05-15T19:53:48.297Z,59.50
2023-05-15T19:56:16.167Z,59.48
2023-05-15T19:58:44.056Z,59.51
2023-05-15T20:01:12.176Z,59.45
2023-05-15T20:03:40.078Z,59.17
2023-05-15T20:06:08.283Z,59.04
2023-05-15T20:08:36.111Z,58.93
2023-05-15T20:11:05.379Z,59.22
2023-05-15T20:13:34.609Z,59.31
2023-05-15T20:16:04.029Z,59.28
2023-05-15T20:18:34.469Z,58.83
2023-05-15T20:21:02.698Z,58.87
2023-05-15T20:23:30.553Z,59.24
2023-05-15T20:25:58.398Z,59.22
2023-05-15T20:28:29.277Z,59.18
2023-05-15T20:30:57.852Z,59.15
2023-05-15T20:33:26.083Z,59.35
2023-05-15T20:35:54.012Z,59.31
2023-05-15T20:38:23.044Z,59.45
2023-05-15T20:40:51.392Z,59.54
2023-05-15T20:43:19.322Z,59.75
2023-05-15T20:45:48.548Z,59.74
2023-05-15T20:48:16.355Z,60.14
2023-05-15T20:50:44.130Z,59.85
2023-05-15T20:53:12.029Z,60.18
2023-05-15T20:55:39.963Z,60.15
2023-05-15T20:58:07.865Z,60.05
2023-05-15T21:00:36.355Z,60.00
2023-05-15T21:03:06.122Z,60.42
2023-05-15T21:05:34.071Z,60.24
2023-05-15T21:08:02.177Z,60.12
2023-05-15T21:10:30.141Z,60.14
2023-05-15T21:12:59.365Z,60.25
2023-05-15T21:15:27.433Z,59.78
2023-05-15T21:17:55.269Z,59.75
2023-05-15T21:20:25.204Z,59.76
2023-05-15T21:22:53.199Z,59.75
2023-05-15T21:25:21.620Z,59.87
2023-05-15T21:27:49.620Z,59.58
2023-05-15T21:30:17.514Z,59.65
2023-05-15T21:32:45.414Z,59.45
2023-05-15T21:35:13.266Z,59.67
2023-05-15T21:37:42.468Z,59.41
2023-05-15T21:40:11.763Z,59.49
2023-05-15T21:42:39.570Z,59.28
2023-05-15T21:45:08.634Z,59.49
2023-05-15T21:47:36.717Z,59.43
2023-05-15T21:50:05.282Z,59.59
2023-05-15T21:52:33.127Z,59.27
2023-05-15T21:55:02.719Z,59.24
2023-05-15T21:57:30.618Z,59.36
2023-05-15T21:59:58.451Z,59.84
2023-05-15T22:02:26.277Z,59.51
2023-05-15T22:04:54.115Z,59.36
2023-05-15T22:07:22.479Z,59.31
2023-05-15T22:09:51.179Z,59.58
2023-05-15T22:12:21.059Z,59.40
2023-05-15T22:14:58.408Z,59.49
2023-05-15T22:17:29.208Z,59.42
2023-05-15T22:20:06.548Z,59.40
2023-05-15T22:22:34.862Z,58.83
2023-05-15T22:25:02.750Z,58.93
2023-05-15T22:27:32.333Z,58.93
2023-05-15T22:30:00.372Z,58.85
2023-05-15T22:32:28.388Z,59.05
2023-05-15T22:34:57.043Z,58.46
2023-05-15T22:37:25.046Z,58.84
2023-05-15T22:39:53.324Z,58.93
2023-05-15T22:42:21.171Z,58.67
2023-05-15T22:44:50.392Z,58.74
2023-05-15T22:47:18.671Z,58.66
2023-05-15T22:49:46.439Z,58.36
2023-05-15T22:52:14.283Z,58.68
2023-05-15T22:54:42.168Z,58.54
2023-05-15T22:57:09.972Z,58.39
2023-05-15T22:59:37.937Z,58.54
2023-05-15T23:02:07.238Z,58.67
2023-05-15T23:04:35.309Z,58.61
2023-05-15T23:07:03.204Z,58.61
2023-05-15T23:09:31.057Z,58.30
2023-05-15T23:11:58.879Z,58.69
2023-05-15T23:14:26.720Z,58.43
2023-05-15T23:16:54.530Z,58.82
2023-05-15T23:19:23.874Z,58.23
2023-05-15T23:21:52.292Z,58.76
2023-05-15T23:24:20.122Z,58.19
2023-05-15T23:26:48.114Z,58.47
2023-05-15T23:29:15.896Z,58.38
2023-05-15T23:31:44.041Z,58.21
2023-05-15T23:34:12.269Z,58.51
2023-05-15T23:36:41.487Z,57.99
2023-05-15T23:39:09.356Z,58.06
2023-05-15T23:41:37.234Z,58.21
2023-05-15T23:44:05.848Z,58.01
2023-05-15T23:46:35.908Z,57.83
2023-05-15T23:49:03.736Z,58.32
2023-05-15T23:51:32.473Z,58.06
2023-05-15T23:54:01.688Z,57.87
2023-05-15T23:56:29.583Z,57.57
2023-05-15T23:58:57.521Z,58.15
